createdAt,value
2016-05-12T00:00:00.523Z,994.74
2016-05-12T00:01:00.526Z,994.74
2016-05-12T00:02:00.497Z,994.72
2016-05-12T00:03:00.484Z,994.73
2016-05-12T00:04:00.487Z,994.73
2016-05-12T00:05:00.474Z,994.72
2016-05-12T00:06:00.461Z,994.69
2016-05-12T00:07:00.463Z,994.68
2016-05-12T00:08:00.435Z,994.69
2016-05-12T00:09:00.422Z,994.67
2016-05-12T00:10:00.409Z,994.65
2016-05-12T00:11:00.397Z,994.67
2016-05-12T00:12:00.399Z,994.62
2016-05-12T00:13:00.386Z,994.66
2016-05-12T00:14:00.374Z,994.63
2016-05-12T00:15:00.360Z,994.64
2016-05-12T00:16:00.348Z,994.61
2016-05-12T00:17:00.334Z,994.66
2016-05-12T00:18:00.321Z,994.6
2016-05-12T00:19:00.309Z,994.61
2016-05-12T00:20:00.312Z,994.62
2016-05-12T00:21:00.298Z,994.6
2016-05-12T00:22:00.285Z,994.6
2016-05-12T00:23:00.272Z,994.6
2016-05-12T00:24:00.260Z,994.6
2016-05-12T00:25:00.248Z,994.59
2016-05-12T00:26:00.234Z,994.57
2016-05-12T00:27:00.236Z,994.55
2016-05-12T00:28:00.223Z,994.54
2016-05-12T00:29:00.210Z,994.56
2016-05-12T00:30:00.197Z,994.54
2016-05-12T00:31:00.184Z,994.55
2016-05-12T00:32:00.172Z,994.54
2016-05-12T00:33:00.159Z,994.56
2016-05-12T00:34:00.146Z,994.55
2016-05-12T00:35:00.133Z,994.56
2016-05-12T00:36:00.136Z,994.5
2016-05-12T00:37:00.122Z,994.49
2016-05-12T00:38:00.110Z,994.5
2016-05-12T00:39:00.097Z,994.46
2016-05-12T00:40:00.084Z,994.49
2016-05-12T00:41:00.274Z,994.48
2016-05-12T00:42:00.058Z,994.46
2016-05-12T00:43:00.045Z,994.46
2016-05-12T00:44:00.048Z,994.49
2016-05-12T00:45:00.034Z,994.46
2016-05-12T00:46:00.021Z,994.51
2016-05-12T00:47:00.010Z,994.47
2016-05-12T00:47:59.996Z,994.47
2016-05-12T00:48:59.983Z,994.51
2016-05-12T00:49:59.970Z,994.5
2016-05-12T00:50:59.957Z,994.48
2016-05-12T00:51:59.959Z,994.46
2016-05-12T00:52:59.947Z,994.48
2016-05-12T00:53:59.934Z,994.46
2016-05-12T00:54:59.921Z,994.49
2016-05-12T00:55:59.908Z,994.48
2016-05-12T00:56:59.895Z,994.42
2016-05-12T00:57:59.882Z,994.44
2016-05-12T00:58:59.870Z,994.45
2016-05-12T00:59:59.872Z,994.44
2016-05-12T01:00:59.843Z,994.41
2016-05-12T01:01:59.847Z,994.41
2016-05-12T01:02:59.834Z,994.37
2016-05-12T01:03:59.820Z,994.39
2016-05-12T01:04:59.807Z,994.37
2016-05-12T01:05:59.810Z,994.4
2016-05-12T01:06:59.781Z,994.36
2016-05-12T01:07:59.769Z,994.32
2016-05-12T01:08:59.756Z,994.35
2016-05-12T01:09:59.743Z,994.33
2016-05-12T01:10:59.730Z,994.39
2016-05-12T01:11:59.732Z,994.31
2016-05-12T01:12:59.719Z,994.36
2016-05-12T01:13:59.707Z,994.38
2016-05-12T01:14:59.694Z,994.36
2016-05-12T01:15:59.681Z,994.36
2016-05-12T01:16:59.668Z,994.37
2016-05-12T01:17:59.654Z,994.34
2016-05-12T01:18:59.642Z,994.37
2016-05-12T01:19:59.629Z,994.35
2016-05-12T01:20:59.615Z,994.34
2016-05-12T01:21:59.635Z,994.34
2016-05-12T01:22:59.606Z,994.31
2016-05-12T01:23:59.593Z,994.34
2016-05-12T01:24:59.580Z,994.34
2016-05-12T01:25:59.567Z,994.36
2016-05-12T01:26:59.554Z,994.32
2016-05-12T01:27:59.541Z,994.33
2016-05-12T01:28:59.528Z,994.32
2016-05-12T01:29:59.515Z,994.33
2016-05-12T01:30:59.503Z,994.31
2016-05-12T01:31:59.489Z,994.34
2016-05-12T01:32:59.492Z,994.29
2016-05-12T01:33:59.478Z,994.31
2016-05-12T01:34:59.466Z,994.3
2016-05-12T01:35:59.453Z,994.28
2016-05-12T01:36:59.456Z,994.26
2016-05-12T01:37:59.428Z,994.3
2016-05-12T01:38:59.414Z,994.26
2016-05-12T01:39:59.402Z,994.29
2016-05-12T01:40:59.388Z,994.26
2016-05-12T01:41:59.376Z,994.24
2016-05-12T01:42:59.378Z,994.24
2016-05-12T01:43:59.365Z,994.24
2016-05-12T01:44:59.352Z,994.23
2016-05-12T01:45:59.340Z,994.22
2016-05-12T01:46:59.327Z,994.23
2016-05-12T01:47:59.313Z,994.28
2016-05-12T01:48:59.301Z,994.21
2016-05-12T01:49:59.288Z,994.19
2016-05-12T01:50:59.274Z,994.17
2016-05-12T01:51:59.277Z,994.2
2016-05-12T01:52:59.249Z,994.21
2016-05-12T01:53:59.236Z,994.17
2016-05-12T01:54:59.239Z,994.19
2016-05-12T01:55:59.226Z,994.17
2016-05-12T01:56:59.213Z,994.18
2016-05-12T01:57:59.200Z,994.11
2016-05-12T01:58:59.187Z,994.16
2016-05-12T01:59:59.174Z,994.12
2016-05-12T02:00:59.161Z,994.13
2016-05-12T02:01:59.147Z,994.13
2016-05-12T02:02:59.135Z,994.08
2016-05-12T02:03:59.123Z,994.08
2016-05-12T02:04:59.109Z,994.06
2016-05-12T02:05:59.111Z,994.06
2016-05-12T02:06:59.099Z,994.03
2016-05-12T02:07:59.086Z,993.99
2016-05-12T02:08:59.073Z,994
2016-05-12T02:09:59.060Z,993.96
2016-05-12T02:10:59.047Z,993.93
2016-05-12T02:11:59.035Z,993.92
2016-05-12T02:12:59.021Z,993.95
2016-05-12T02:13:59.008Z,993.96
2016-05-12T02:14:58.996Z,993.91
2016-05-12T02:15:58.982Z,993.9
2016-05-12T02:16:58.986Z,993.93
2016-05-12T02:17:58.957Z,993.91
2016-05-12T02:18:58.959Z,993.88
2016-05-12T02:19:58.947Z,993.94
2016-05-12T02:20:58.934Z,993.97
2016-05-12T02:21:58.921Z,993.98
2016-05-12T02:22:58.907Z,993.93
2016-05-12T02:23:58.895Z,993.93
2016-05-12T02:24:58.882Z,993.94
2016-05-12T02:25:58.869Z,993.98
2016-05-12T02:26:58.856Z,993.98
2016-05-12T02:27:58.843Z,993.98
2016-05-12T02:28:58.830Z,993.93
2016-05-12T02:29:58.833Z,993.96
2016-05-12T02:30:58.820Z,993.93
2016-05-12T02:31:58.807Z,993.93
2016-05-12T02:32:58.795Z,993.9
2016-05-12T02:33:58.875Z,993.93
2016-05-12T02:34:58.767Z,993.89
2016-05-12T02:35:58.756Z,993.87
2016-05-12T02:36:58.742Z,993.84
2016-05-12T02:37:58.729Z,993.87
2016-05-12T02:38:58.717Z,993.83
2016-05-12T02:39:58.703Z,993.78
2016-05-12T02:40:58.894Z,993.8
2016-05-12T02:41:58.694Z,993.8
2016-05-12T02:42:58.680Z,993.72
2016-05-12T02:43:58.667Z,993.71
2016-05-12T02:44:58.654Z,993.67
2016-05-12T02:45:58.657Z,993.68
2016-05-12T02:46:58.629Z,993.69
2016-05-12T02:47:58.616Z,993.67
2016-05-12T02:48:58.602Z,993.67
2016-05-12T02:49:58.621Z,993.62
2016-05-12T02:50:58.655Z,993.61
2016-05-12T02:51:58.564Z,993.62
2016-05-12T02:52:58.551Z,993.64
2016-05-12T02:53:58.538Z,993.63
2016-05-12T02:54:58.525Z,993.65
2016-05-12T02:55:58.512Z,993.61
2016-05-12T02:56:58.498Z,993.63
2016-05-12T02:57:58.486Z,993.63
2016-05-12T02:58:58.474Z,993.6
2016-05-12T02:59:58.460Z,993.62
2016-05-12T03:00:58.479Z,993.61
2016-05-12T03:01:58.450Z,993.6
2016-05-12T03:02:58.437Z,993.62
2016-05-12T03:03:58.424Z,993.57
2016-05-12T03:04:58.412Z,993.6
2016-05-12T03:05:58.398Z,993.6
2016-05-12T03:06:58.386Z,993.62
2016-05-12T03:07:58.372Z,993.58
2016-05-12T03:08:58.359Z,993.58
2016-05-12T03:09:58.347Z,993.58
2016-05-12T03:10:58.334Z,993.58
2016-05-12T03:11:58.321Z,993.58
2016-05-12T03:12:58.308Z,993.54
2016-05-12T03:13:58.311Z,993.55
2016-05-12T03:14:58.282Z,993.52
2016-05-12T03:15:58.269Z,993.57
2016-05-12T03:16:58.271Z,993.54
2016-05-12T03:17:58.259Z,993.54
2016-05-12T03:18:58.246Z,993.5
2016-05-12T03:19:58.233Z,993.48
2016-05-12T03:20:58.221Z,993.49
2016-05-12T03:21:58.207Z,993.47
2016-05-12T03:22:58.193Z,993.49
2016-05-12T03:23:58.181Z,993.49
2016-05-12T03:24:58.168Z,993.49
2016-05-12T03:25:58.155Z,993.51
2016-05-12T03:26:58.142Z,993.49
2016-05-12T03:27:58.129Z,993.49
2016-05-12T03:28:58.117Z,993.46
2016-05-12T03:29:58.103Z,993.48
2016-05-12T03:30:58.090Z,993.47
2016-05-12T03:31:58.078Z,993.49
2016-05-12T03:32:58.065Z,993.46
2016-05-12T03:33:58.067Z,993.46
2016-05-12T03:34:58.039Z,993.48
2016-05-12T03:35:58.025Z,993.5
2016-05-12T03:36:58.013Z,993.51
2016-05-12T03:37:58.016Z,993.47
2016-05-12T03:38:58.003Z,993.5
2016-05-12T03:39:57.990Z,993.49
2016-05-12T03:40:57.977Z,993.49
2016-05-12T03:41:57.963Z,993.49
2016-05-12T03:42:57.950Z,993.51
2016-05-12T03:43:57.938Z,993.49
2016-05-12T03:44:57.925Z,993.45
2016-05-12T03:45:57.912Z,993.48
2016-05-12T03:46:57.899Z,993.5
2016-05-12T03:47:57.886Z,993.49
2016-05-12T03:48:57.874Z,993.48
2016-05-12T03:49:57.860Z,993.48
2016-05-12T03:50:57.847Z,993.45
2016-05-12T03:51:57.835Z,993.43
2016-05-12T03:52:57.822Z,993.44
2016-05-12T03:53:57.809Z,993.44
2016-05-12T03:54:57.812Z,993.42
2016-05-12T03:55:57.782Z,993.43
2016-05-12T03:56:57.770Z,993.42
2016-05-12T03:57:57.773Z,993.43
2016-05-12T03:58:57.760Z,993.46
2016-05-12T03:59:57.747Z,993.43
2016-05-12T04:00:57.734Z,993.43
2016-05-12T04:01:57.721Z,993.45
2016-05-12T04:02:57.708Z,993.42
2016-05-12T04:03:57.695Z,993.45
2016-05-12T04:04:57.682Z,993.45
2016-05-12T04:05:57.670Z,993.45
2016-05-12T04:06:57.656Z,993.44
2016-05-12T04:07:57.643Z,993.44
2016-05-12T04:08:57.630Z,993.44
2016-05-12T04:09:57.617Z,993.43
2016-05-12T04:10:57.605Z,993.45
2016-05-12T04:11:57.592Z,993.43
2016-05-12T04:12:57.578Z,993.42
2016-05-12T04:13:57.566Z,993.39
2016-05-12T04:14:57.552Z,993.38
2016-05-12T04:15:57.539Z,993.37
2016-05-12T04:16:57.527Z,993.37
2016-05-12T04:17:57.529Z,993.36
2016-05-12T04:18:57.502Z,993.3
2016-05-12T04:19:57.488Z,993.34
2016-05-12T04:20:57.491Z,993.33
2016-05-12T04:21:57.477Z,993.34
2016-05-12T04:22:57.465Z,993.34
2016-05-12T04:23:57.451Z,993.31
2016-05-12T04:24:57.438Z,993.3
2016-05-12T04:25:57.426Z,993.32
2016-05-12T04:26:57.429Z,993.37
2016-05-12T04:27:57.400Z,993.38
2016-05-12T04:28:57.387Z,993.33
2016-05-12T04:29:57.374Z,993.35
2016-05-12T04:30:57.362Z,993.35
2016-05-12T04:31:57.707Z,993.38
2016-05-12T04:32:57.335Z,993.35
2016-05-12T04:33:57.323Z,993.32
2016-05-12T04:34:57.309Z,993.31
2016-05-12T04:35:57.312Z,993.3
2016-05-12T04:36:57.486Z,993.32
2016-05-12T04:37:57.271Z,993.33
2016-05-12T04:38:57.274Z,993.3
2016-05-12T04:39:57.245Z,993.3
2016-05-12T04:40:57.450Z,993.33
2016-05-12T04:41:57.234Z,993.33
2016-05-12T04:42:57.221Z,993.36
2016-05-12T04:43:57.209Z,993.31
2016-05-12T04:44:57.197Z,993.29
2016-05-12T04:45:57.183Z,993.33
2016-05-12T04:46:57.170Z,993.34
2016-05-12T04:47:57.157Z,993.36
2016-05-12T04:48:57.144Z,993.35
2016-05-12T04:49:57.130Z,993.36
2016-05-12T04:50:57.119Z,993.35
2016-05-12T04:51:57.105Z,993.35
2016-05-12T04:52:57.093Z,993.34
2016-05-12T04:53:57.079Z,993.35
2016-05-12T04:54:57.066Z,993.32
2016-05-12T04:55:57.069Z,993.31
2016-05-12T04:56:57.041Z,993.32
2016-05-12T04:57:57.027Z,993.32
2016-05-12T04:58:57.030Z,993.3
2016-05-12T04:59:57.018Z,993.31
2016-05-12T05:00:57.004Z,993.32
2016-05-12T05:01:56.976Z,993.35
2016-05-12T05:02:56.978Z,993.34
2016-05-12T05:03:56.966Z,993.37
2016-05-12T05:04:56.953Z,993.34
2016-05-12T05:05:56.940Z,993.39
2016-05-12T05:06:56.927Z,993.35
2016-05-12T05:07:56.914Z,993.35
2016-05-12T05:08:56.901Z,993.32
2016-05-12T05:09:56.888Z,993.35
2016-05-12T05:10:56.875Z,993.32
2016-05-12T05:11:56.862Z,993.31
2016-05-12T05:12:56.850Z,993.36
2016-05-12T05:13:56.836Z,993.34
2016-05-12T05:14:56.823Z,993.32
2016-05-12T05:15:56.810Z,993.31
2016-05-12T05:16:56.813Z,993.34
2016-05-12T05:17:56.785Z,993.33
2016-05-12T05:18:56.788Z,993.28
2016-05-12T05:19:56.774Z,993.35
2016-05-12T05:20:56.761Z,993.3
2016-05-12T05:21:56.749Z,993.26
2016-05-12T05:22:56.735Z,993.29
2016-05-12T05:23:56.723Z,993.28
2016-05-12T05:24:56.710Z,993.3
2016-05-12T05:25:56.697Z,993.29
2016-05-12T05:26:56.684Z,993.3
2016-05-12T05:27:56.671Z,993.31
2016-05-12T05:28:56.673Z,993.24
2016-05-12T05:29:56.660Z,993.29
2016-05-12T05:30:56.648Z,993.25
2016-05-12T05:31:56.651Z,993.27
2016-05-12T05:32:56.621Z,993.23
2016-05-12T05:33:56.609Z,993.27
2016-05-12T05:34:56.596Z,993.25
2016-05-12T05:35:56.583Z,993.28
2016-05-12T05:36:56.570Z,993.24
2016-05-12T05:37:56.556Z,993.25
2016-05-12T05:38:56.545Z,993.25
2016-05-12T05:39:56.532Z,993.27
2016-05-12T05:40:56.534Z,993.25
2016-05-12T05:41:56.521Z,993.28
2016-05-12T05:42:56.508Z,993.28
2016-05-12T05:43:56.494Z,993.29
2016-05-12T05:44:56.483Z,993.29
2016-05-12T05:45:56.469Z,993.3
2016-05-12T05:46:56.456Z,993.29
2016-05-12T05:47:56.444Z,993.24
2016-05-12T05:48:56.430Z,993.22
2016-05-12T05:49:56.417Z,993.28
2016-05-12T05:50:56.420Z,993.25
2016-05-12T05:51:56.391Z,993.29
2016-05-12T05:52:56.394Z,993.24
2016-05-12T05:53:56.381Z,993.26
2016-05-12T05:54:56.368Z,993.27
2016-05-12T05:55:56.356Z,993.26
2016-05-12T05:56:56.343Z,993.26
2016-05-12T05:57:56.329Z,993.3
2016-05-12T05:58:56.316Z,993.29
2016-05-12T05:59:56.319Z,993.28
2016-05-12T06:00:56.307Z,993.34
2016-05-12T06:01:56.746Z,993.34
2016-05-12T06:02:56.281Z,993.34
2016-05-12T06:03:56.268Z,993.33
2016-05-12T06:04:56.255Z,993.36
2016-05-12T06:05:56.242Z,993.3
2016-05-12T06:06:56.229Z,993.29
2016-05-12T06:07:56.231Z,993.32
2016-05-12T06:08:56.218Z,993.36
2016-05-12T06:09:56.205Z,993.33
2016-05-12T06:10:56.193Z,993.35
2016-05-12T06:11:56.180Z,993.34
2016-05-12T06:12:56.167Z,993.36
2016-05-12T06:13:56.153Z,993.33
2016-05-12T06:14:56.141Z,993.29
2016-05-12T06:15:56.144Z,993.28
2016-05-12T06:16:56.131Z,993.3
2016-05-12T06:17:56.117Z,993.31
2016-05-12T06:18:56.105Z,993.22
2016-05-12T06:19:56.092Z,993.25
2016-05-12T06:20:56.079Z,993.32
2016-05-12T06:21:56.082Z,993.24
2016-05-12T06:22:56.069Z,993.25
2016-05-12T06:23:56.055Z,993.26
2016-05-12T06:24:56.043Z,993.26
2016-05-12T06:25:56.030Z,993.22
2016-05-12T06:26:56.017Z,993.32
2016-05-12T06:27:56.004Z,993.27
2016-05-12T06:28:56.007Z,993.27
2016-05-12T06:29:55.994Z,993.28
2016-05-12T06:30:55.981Z,993.25
2016-05-12T06:31:56.234Z,993.25
2016-05-12T06:32:55.970Z,993.22
2016-05-12T06:33:55.943Z,993.26
2016-05-12T06:34:55.945Z,993.25
2016-05-12T06:35:55.931Z,993.25
2016-05-12T06:36:55.919Z,993.26
2016-05-12T06:37:55.906Z,993.27
2016-05-12T06:38:55.893Z,993.3
2016-05-12T06:39:55.881Z,993.23
2016-05-12T06:40:56.087Z,993.24
2016-05-12T06:41:55.870Z,993.29
2016-05-12T06:42:55.857Z,993.29
2016-05-12T06:43:55.859Z,993.24
2016-05-12T06:44:55.831Z,993.18
2016-05-12T06:45:55.834Z,993.18
2016-05-12T06:46:55.820Z,993.15
2016-05-12T06:47:55.808Z,993.19
2016-05-12T06:48:55.794Z,993.2
2016-05-12T06:49:55.825Z,993.17
2016-05-12T06:50:55.871Z,993.18
2016-05-12T06:51:55.900Z,993.14
2016-05-12T06:52:55.930Z,993.13
2016-05-12T06:53:55.976Z,993.11
2016-05-12T06:54:55.979Z,993.13
2016-05-12T06:55:55.982Z,993.06
2016-05-12T06:56:55.983Z,993.16
2016-05-12T06:57:55.986Z,993.13
2016-05-12T06:58:56.004Z,993.07
2016-05-12T06:59:55.996Z,993.12
2016-05-12T07:00:55.990Z,993.07
2016-05-12T07:01:56.215Z,993.08
2016-05-12T07:02:55.974Z,993.1
2016-05-12T07:03:55.966Z,993.1
2016-05-12T07:04:55.955Z,993.09
2016-05-12T07:05:55.960Z,993.06
2016-05-12T07:06:55.949Z,993.11
2016-05-12T07:07:55.953Z,993.08
2016-05-12T07:08:55.943Z,993.11
2016-05-12T07:09:55.931Z,993.15
2016-05-12T07:10:55.919Z,993.09
2016-05-12T07:11:55.906Z,993.16
2016-05-12T07:12:55.893Z,993.11
2016-05-12T07:13:55.897Z,993.02
2016-05-12T07:14:55.885Z,993.05
2016-05-12T07:15:55.872Z,993.06
2016-05-12T07:16:56.266Z,993.04
2016-05-12T07:17:55.862Z,993.06
2016-05-12T07:18:55.850Z,993
2016-05-12T07:19:55.837Z,993.04
2016-05-12T07:20:55.824Z,993.05
2016-05-12T07:21:55.811Z,993.09
2016-05-12T07:22:55.814Z,993.08
2016-05-12T07:23:55.801Z,993.09
2016-05-12T07:24:55.804Z,993.1
2016-05-12T07:25:55.791Z,993.1
2016-05-12T07:26:55.777Z,993.11
2016-05-12T07:27:55.765Z,993.13
2016-05-12T07:28:55.752Z,993.13
2016-05-12T07:29:55.755Z,993.18
2016-05-12T07:30:55.742Z,993.17
2016-05-12T07:31:55.744Z,993.18
2016-05-12T07:32:55.732Z,993.13
2016-05-12T07:33:55.719Z,993.17
2016-05-12T07:34:55.721Z,993.29
2016-05-12T07:35:55.708Z,993.23
2016-05-12T07:36:55.711Z,993.13
2016-05-12T07:37:55.713Z,993.22
2016-05-12T07:38:55.701Z,993.08
2016-05-12T07:39:55.704Z,993.14
2016-05-12T07:40:55.691Z,993.22
2016-05-12T07:41:55.693Z,993.2
2016-05-12T07:42:55.680Z,993.19
2016-05-12T07:43:55.682Z,993.17
2016-05-12T07:44:55.671Z,993.13
2016-05-12T07:45:55.673Z,993.18
2016-05-12T07:46:55.676Z,993.21
2016-05-12T07:47:55.662Z,993.2
2016-05-12T07:48:55.665Z,993.23
2016-05-12T07:49:55.668Z,993.2
2016-05-12T07:50:55.670Z,993.21
2016-05-12T07:51:55.659Z,993.28
2016-05-12T07:52:55.661Z,993.14
2016-05-12T07:53:55.679Z,993.27
2016-05-12T07:54:55.666Z,993.2
2016-05-12T07:55:55.669Z,993.21
2016-05-12T07:56:55.656Z,993.23
2016-05-12T07:57:55.658Z,993.15
2016-05-12T07:58:55.661Z,993.16
2016-05-12T07:59:55.663Z,993.25
2016-05-12T08:00:55.650Z,993.19
2016-05-12T08:01:55.669Z,993.23
2016-05-12T08:02:55.656Z,993.26
2016-05-12T08:03:55.658Z,993.31
2016-05-12T08:04:55.661Z,993.18
2016-05-12T08:05:55.664Z,993.2
2016-05-12T08:06:55.652Z,993.21
2016-05-12T08:07:55.654Z,993.31
2016-05-12T08:08:55.656Z,993.35
2016-05-12T08:09:55.660Z,993.26
2016-05-12T08:10:55.663Z,993.26
2016-05-12T08:11:55.649Z,993.3
2016-05-12T08:12:55.652Z,993.24
2016-05-12T08:13:55.654Z,993.26
2016-05-12T08:14:55.657Z,993.28
2016-05-12T08:15:55.660Z,993.25
2016-05-12T08:16:55.662Z,993.23
2016-05-12T08:17:55.666Z,993.22
2016-05-12T08:18:55.668Z,993.17
2016-05-12T08:19:55.654Z,993.14
2016-05-12T08:20:55.674Z,993.25
2016-05-12T08:21:55.660Z,993.07
2016-05-12T08:22:55.662Z,993.13
2016-05-12T08:23:55.665Z,993.06
2016-05-12T08:24:55.668Z,993.1
2016-05-12T08:25:55.670Z,993.13
2016-05-12T08:26:55.673Z,993.13
2016-05-12T08:27:55.676Z,993.09
2016-05-12T08:28:55.678Z,993.15
2016-05-12T08:29:55.681Z,993.1
2016-05-12T08:30:55.778Z,993.13
2016-05-12T08:31:55.672Z,993.05
2016-05-12T08:32:55.690Z,993.06
2016-05-12T08:33:55.678Z,993.12
2016-05-12T08:34:55.680Z,993.18
2016-05-12T08:35:55.714Z,993.11
2016-05-12T08:36:55.685Z,993.09
2016-05-12T08:37:55.688Z,993.07
2016-05-12T08:38:55.691Z,993.12
2016-05-12T08:39:55.693Z,993.11
2016-05-12T08:40:55.915Z,993.11
2016-05-12T08:41:55.698Z,993.13
2016-05-12T08:42:55.701Z,993.06
2016-05-12T08:43:55.704Z,993.13
2016-05-12T08:44:55.707Z,993.15
2016-05-12T08:45:55.709Z,993.11
2016-05-12T08:46:55.727Z,993.13
2016-05-12T08:47:55.715Z,993.1
2016-05-12T08:48:55.717Z,993.06
2016-05-12T08:49:55.720Z,992.99
2016-05-12T08:50:55.723Z,992.9
2016-05-12T08:51:55.725Z,992.99
2016-05-12T08:52:55.728Z,992.96
2016-05-12T08:53:55.731Z,992.84
2016-05-12T08:54:55.733Z,992.93
2016-05-12T08:55:55.737Z,992.97
2016-05-12T08:56:55.739Z,992.93
2016-05-12T08:57:55.741Z,992.94
2016-05-12T08:58:55.745Z,992.88
2016-05-12T08:59:55.747Z,992.86
2016-05-12T09:00:55.733Z,992.98
2016-05-12T09:01:56.081Z,992.97
2016-05-12T09:02:55.739Z,992.98
2016-05-12T09:03:55.742Z,992.93
2016-05-12T09:04:55.744Z,992.93
2016-05-12T09:05:55.747Z,992.86
2016-05-12T09:06:55.750Z,992.94
2016-05-12T09:07:55.752Z,992.93
2016-05-12T09:08:55.880Z,992.96
2016-05-12T09:09:55.743Z,992.8
2016-05-12T09:10:55.746Z,992.89
2016-05-12T09:11:55.748Z,992.87
2016-05-12T09:12:55.735Z,992.85
2016-05-12T09:13:55.737Z,992.96
2016-05-12T09:14:55.741Z,992.89
2016-05-12T09:15:55.743Z,992.84
2016-05-12T09:16:55.746Z,992.96
2016-05-12T09:17:55.733Z,993
2016-05-12T09:18:55.735Z,992.81
2016-05-12T09:19:55.738Z,992.93
2016-05-12T09:20:55.741Z,993.05
2016-05-12T09:21:55.743Z,992.95
2016-05-12T09:22:55.731Z,992.9
2016-05-12T09:23:55.733Z,992.85
2016-05-12T09:24:55.736Z,992.79
2016-05-12T09:25:55.723Z,992.85
2016-05-12T09:26:55.725Z,992.89
2016-05-12T09:27:55.728Z,992.76
2016-05-12T09:28:55.731Z,992.72
2016-05-12T09:29:55.734Z,992.67
2016-05-12T09:30:55.720Z,992.78
2016-05-12T09:31:56.208Z,992.75
2016-05-12T09:32:55.726Z,992.72
2016-05-12T09:33:55.713Z,992.84
2016-05-12T09:34:55.716Z,992.8
2016-05-12T09:35:55.719Z,992.67
2016-05-12T09:36:56.019Z,992.67
2016-05-12T09:37:55.708Z,992.69
2016-05-12T09:38:55.711Z,992.64
2016-05-12T09:39:55.699Z,992.65
2016-05-12T09:40:55.701Z,992.66
2016-05-12T09:41:55.704Z,992.79
2016-05-12T09:42:55.706Z,992.76
2016-05-12T09:43:55.693Z,992.75
2016-05-12T09:44:55.680Z,992.69
2016-05-12T09:45:55.682Z,992.62
2016-05-12T09:46:55.686Z,992.78
2016-05-12T09:47:55.688Z,992.61
2016-05-12T09:48:55.676Z,992.63
2016-05-12T09:49:55.679Z,992.63
2016-05-12T09:50:55.665Z,992.66
2016-05-12T09:51:55.668Z,992.72
2016-05-12T09:52:55.670Z,992.6
2016-05-12T09:53:55.657Z,992.63
2016-05-12T09:54:58.395Z,992.61
2016-05-12T09:55:55.663Z,992.59
2016-05-12T09:56:55.650Z,992.64
2016-05-12T09:57:55.653Z,992.69
2016-05-12T09:58:55.639Z,992.56
2016-05-12T09:59:55.642Z,992.59
2016-05-12T10:00:55.645Z,992.6
2016-05-12T10:01:55.632Z,992.67
2016-05-12T10:02:55.636Z,992.55
2016-05-12T10:03:55.623Z,992.63
2016-05-12T10:04:55.625Z,992.63
2016-05-12T10:05:55.628Z,992.61
2016-05-12T10:06:55.614Z,992.58
2016-05-12T10:07:55.617Z,992.63
2016-05-12T10:08:55.620Z,992.62
2016-05-12T10:09:55.607Z,992.61
2016-05-12T10:10:55.610Z,992.55
2016-05-12T10:11:55.612Z,992.69
2016-05-12T10:12:55.599Z,992.68
2016-05-12T10:13:55.602Z,992.63
2016-05-12T10:14:55.588Z,992.53
2016-05-12T10:15:55.591Z,992.59
2016-05-12T10:16:56.001Z,992.59
2016-05-12T10:17:55.582Z,992.66
2016-05-12T10:18:55.585Z,992.58
2016-05-12T10:19:55.571Z,992.66
2016-05-12T10:20:55.574Z,992.74
2016-05-12T10:21:55.576Z,992.63
2016-05-12T10:22:55.580Z,992.67
2016-05-12T10:23:55.582Z,992.69
2016-05-12T10:24:55.570Z,992.62
2016-05-12T10:25:55.572Z,992.8
2016-05-12T10:26:55.575Z,992.62
2016-05-12T10:27:55.578Z,992.82
2016-05-12T10:28:55.564Z,992.78
2016-05-12T10:29:55.567Z,992.79
2016-05-12T10:30:55.569Z,992.8
2016-05-12T10:31:55.572Z,992.75
2016-05-12T10:32:55.576Z,992.76
2016-05-12T10:33:55.577Z,992.71
2016-05-12T10:34:55.580Z,992.83
2016-05-12T10:35:55.583Z,992.77
2016-05-12T10:36:55.586Z,992.84
2016-05-12T10:37:55.589Z,992.76
2016-05-12T10:38:55.591Z,992.85
2016-05-12T10:39:55.578Z,992.89
2016-05-12T10:40:55.783Z,992.79
2016-05-12T10:41:55.599Z,992.75
2016-05-12T10:42:55.586Z,992.62
2016-05-12T10:43:55.589Z,992.7
2016-05-12T10:44:55.607Z,992.77
2016-05-12T10:45:55.610Z,992.74
2016-05-12T10:46:55.613Z,992.8
2016-05-12T10:47:55.616Z,992.56
2016-05-12T10:48:55.618Z,992.67
2016-05-12T10:49:55.620Z,992.79
2016-05-12T10:50:55.624Z,992.68
2016-05-12T10:51:55.627Z,992.6
2016-05-12T10:52:55.629Z,992.67
2016-05-12T10:53:55.632Z,992.67
2016-05-12T10:54:55.634Z,992.68
2016-05-12T10:55:55.637Z,992.65
2016-05-12T10:56:55.640Z,992.66
2016-05-12T10:57:55.643Z,992.62
2016-05-12T10:58:55.645Z,992.65
2016-05-12T10:59:55.647Z,992.65
2016-05-12T11:00:55.666Z,992.67
2016-05-12T11:01:55.670Z,992.52
2016-05-12T11:02:55.671Z,992.59
2016-05-12T11:03:55.674Z,992.6
2016-05-12T11:04:55.677Z,992.6
2016-05-12T11:05:55.680Z,992.6
2016-05-12T11:06:55.683Z,992.57
2016-05-12T11:07:55.686Z,992.55
2016-05-12T11:08:55.687Z,992.5
2016-05-12T11:09:55.691Z,992.5
2016-05-12T11:10:55.694Z,992.51
2016-05-12T11:11:55.711Z,992.52
2016-05-12T11:12:55.699Z,992.54
2016-05-12T11:13:55.701Z,992.55
2016-05-12T11:14:55.719Z,992.43
2016-05-12T11:15:55.722Z,992.61
2016-05-12T11:16:55.724Z,992.43
2016-05-12T11:17:55.727Z,992.41
2016-05-12T11:18:55.730Z,992.44
2016-05-12T11:19:55.732Z,992.39
2016-05-12T11:20:55.735Z,992.4
2016-05-12T11:21:55.738Z,992.38
2016-05-12T11:22:55.740Z,992.42
2016-05-12T11:23:55.743Z,992.48
2016-05-12T11:24:55.746Z,992.45
2016-05-12T11:25:55.749Z,992.4
2016-05-12T11:26:55.751Z,992.45
2016-05-12T11:27:55.754Z,992.39
2016-05-12T11:28:55.757Z,992.36
2016-05-12T11:29:55.760Z,992.35
2016-05-12T11:30:55.762Z,992.45
2016-05-12T11:31:55.780Z,992.25
2016-05-12T11:32:55.768Z,992.41
2016-05-12T11:33:55.770Z,992.46
2016-05-12T11:34:55.772Z,992.44
2016-05-12T11:35:55.839Z,992.47
2016-05-12T11:36:55.778Z,992.37
2016-05-12T11:37:55.781Z,992.33
2016-05-12T11:38:55.799Z,992.33
2016-05-12T11:39:55.803Z,992.19
2016-05-12T11:40:55.805Z,992.25
2016-05-12T11:41:55.807Z,992.28
2016-05-12T11:42:55.795Z,992.32
2016-05-12T11:43:55.813Z,992.24
2016-05-12T11:44:55.816Z,992.23
2016-05-12T11:45:55.819Z,992.35
2016-05-12T11:46:55.821Z,992.32
2016-05-12T11:47:55.824Z,992.32
2016-05-12T11:48:55.826Z,992.2
2016-05-12T11:49:55.814Z,992.15
2016-05-12T11:50:55.832Z,992.19
2016-05-12T11:51:55.834Z,992.15
2016-05-12T11:52:55.837Z,992.15
2016-05-12T11:53:55.840Z,992.08
2016-05-12T11:54:55.843Z,992.12
2016-05-12T11:55:55.845Z,992.18
2016-05-12T11:56:55.848Z,992.11
2016-05-12T11:57:55.866Z,992.11
2016-05-12T11:58:55.853Z,992.15
2016-05-12T11:59:55.856Z,992.2
2016-05-12T12:00:55.859Z,992.26
2016-05-12T12:01:55.862Z,992.14
2016-05-12T12:02:55.865Z,992.14
2016-05-12T12:03:55.867Z,992.08
2016-05-12T12:04:55.869Z,992.19
2016-05-12T12:05:55.872Z,992.21
2016-05-12T12:06:55.875Z,992.26
2016-05-12T12:07:55.877Z,992.2
2016-05-12T12:08:55.881Z,992.22
2016-05-12T12:09:55.883Z,992.12
2016-05-12T12:10:55.885Z,992.19
2016-05-12T12:11:55.888Z,992.22
2016-05-12T12:12:55.938Z,992.21
2016-05-12T12:13:55.908Z,992.2
2016-05-12T12:14:55.896Z,992.25
2016-05-12T12:15:55.914Z,992.24
2016-05-12T12:16:55.902Z,992.23
2016-05-12T12:17:55.920Z,992.2
2016-05-12T12:18:55.922Z,992.2
2016-05-12T12:19:55.925Z,992.18
2016-05-12T12:20:55.927Z,992.12
2016-05-12T12:21:55.931Z,992.13
2016-05-12T12:22:55.933Z,992.19
2016-05-12T12:23:55.952Z,992.15
2016-05-12T12:24:55.938Z,992.16
2016-05-12T12:25:55.941Z,992.11
2016-05-12T12:26:56.163Z,992.15
2016-05-12T12:27:55.962Z,992.11
2016-05-12T12:28:55.965Z,992.1
2016-05-12T12:29:55.967Z,992.09
2016-05-12T12:30:55.970Z,992.13